Observations for SOUTHEND-ON-SEA, United Kingdom (EGMC)

EGMC 260450Z 00000KT 7000 NSC 13/13 Q1018   
EGMC 260420Z 00000KT 7000 NSC 13/13 Q1018   
EGMC 260350Z 00000KT 7000 NSC 13/13 Q1019   
EGMC 260250Z 00000KT 6000 NSC 13/13 Q1019   
EGMC 260150Z 00000KT CAVOK 14/13 Q1019  
EGMC 252350Z 10002KT CAVOK 16/15 Q1019  
EGMC 252320Z 10002KT CAVOK 16/15 Q1019  
EGMC 252250Z 10002KT CAVOK 17/16 Q1019  
EGMC 252220Z 10002KT CAVOK 18/16 Q1019  
EGMC 252150Z 10003KT CAVOK 18/16 Q1019  
EGMC 252120Z 08004KT CAVOK 18/16 Q1019  
EGMC 252050Z 09004KT CAVOK 19/15 Q1019  
EGMC 252020Z 09003KT CAVOK 20/15 Q1019  
EGMC 251950Z 09005KT CAVOK 20/15 Q1019  
EGMC 251920Z 09005KT CAVOK 20/15 Q1019  
EGMC 251850Z 09006KT CAVOK 22/15 Q1018  
EGMC 251820Z 09007KT CAVOK 23/14 Q1018  
EGMC 251750Z 09009KT CAVOK 25/14 Q1018  
EGMC 251720Z 08010KT CAVOK 26/14 Q1018  
EGMC 251650Z 09011KT CAVOK 27/14 Q1018  
EGMC 251620Z 09009KT CAVOK 28/13 Q1018  
EGMC 251550Z 09010KT CAVOK 29/13 Q1018  
EGMC 251520Z 09010KT CAVOK 29/13 Q1018  
EGMC 251450Z 09011KT CAVOK 29/12 Q1018  
EGMC 251420Z 09011KT CAVOK 30/14 Q1018  
EGMC 251350Z 09010KT CAVOK 30/13 Q1018  
EGMC 251320Z 10011KT CAVOK 30/14 Q1018  
EGMC 251250Z 14008KT CAVOK 30/14 Q1018  
EGMC 251220Z 14007KT CAVOK 29/14 Q1018  
EGMC 251150Z 12010KT CAVOK 29/14 Q1018  
EGMC 251120Z 12007KT CAVOK 29/14 Q1018  
EGMC 251050Z 10008KT CAVOK 28/14 Q1018  
EGMC 251020Z 10007KT CAVOK 28/15 Q1018  
EGMC 250950Z 12006KT 090V160 CAVOK 27/14 Q1018  
EGMC 250920Z 14005KT 090V210 CAVOK 25/15 Q1018  
EGMC 250850Z 15004KT 9000 NSC 24/17 Q1018   
EGMC 250820Z VRB02KT 6000 HZ NSC 20/18 Q1018
EGMC 250750Z VRB02KT 4000 BR NSC 20/18 Q1018
EGMC 250720Z 00000KT 4000 BR NSC 18/17 Q1018
EGMC 250650Z VRB03KT 4000 BR NSC 15/15 Q1018
EGMC 250620Z VRB03KT 4000 BR NSC 14/14 Q1018
EGMC 250550Z 00000KT 4000 BR NSC 13/13 Q1017
EGMC 250520Z 00000KT 3500 BR NSC 13/13 Q1017
EGMC 250450Z 00000KT 4000 BR NSC 13/13 Q1017
EGMC 250420Z 00000KT 4000 BR NSC 11/11 Q1017